sensor_id;sensor_type;location;lat;lon;timestamp;P1;durP1;ratioP1;P2;durP2;ratioP2
9536;SDS011;4807;48.024;11.726;2023-08-01T00:00:51;3.03;;;1.27;;
9536;SDS011;4807;48.024;11.726;2023-08-01T00:04:00;1.23;;;1.13;;
9536;SDS011;4807;48.024;11.726;2023-08-01T00:07:09;1.20;;;1.10;;
9536;SDS011;4807;48.024;11.726;2023-08-01T00:10:19;2.50;;;1.50;;
9536;SDS011;4807;48.024;11.726;2023-08-01T00:13:28;2.07;;;1.50;;
9536;SDS011;4807;48.024;11.726;2023-08-01T00:16:36;1.97;;;1.10;;
9536;SDS011;4807;48.024;11.726;2023-08-01T00:19:45;1.50;;;1.30;;
9536;SDS011;4807;48.024;11.726;2023-08-01T00:22:54;1.37;;;1.27;;
9536;SDS011;4807;48.024;11.726;2023-08-01T00:26:04;2.00;;;1.40;;
9536;SDS011;4807;48.024;11.726;2023-08-01T00:29:13;1.73;;;1.40;;
9536;SDS011;4807;48.024;11.726;2023-08-01T00:32:22;1.80;;;1.43;;
9536;SDS011;4807;48.024;11.726;2023-08-01T00:35:30;1.50;;;1.40;;
9536;SDS011;4807;48.024;11.726;2023-08-01T00:38:39;2.70;;;1.50;;
9536;SDS011;4807;48.024;11.726;2023-08-01T00:41:50;1.67;;;1.27;;
9536;SDS011;4807;48.024;11.726;2023-08-01T00:44:59;1.70;;;1.30;;
9536;SDS011;4807;48.024;11.726;2023-08-01T00:48:08;2.43;;;1.70;;
9536;SDS011;4807;48.024;11.726;2023-08-01T00:51:17;2.57;;;1.50;;
9536;SDS011;4807;48.024;11.726;2023-08-01T00:54:26;1.70;;;1.50;;
9536;SDS011;4807;48.024;11.726;2023-08-01T00:57:38;3.13;;;1.50;;
9536;SDS011;4807;48.024;11.726;2023-08-01T01:00:48;2.67;;;1.80;;
9536;SDS011;4807;48.024;11.726;2023-08-01T01:03:57;2.40;;;1.50;;
9536;SDS011;4807;48.024;11.726;2023-08-01T01:07:06;2.13;;;1.60;;
9536;SDS011;4807;48.024;11.726;2023-08-01T01:10:16;1.90;;;1.70;;
9536;SDS011;4807;48.024;11.726;2023-08-01T01:13:26;1.73;;;1.57;;
9536;SDS011;4807;48.024;11.726;2023-08-01T01:16:34;2.33;;;1.83;;
9536;SDS011;4807;48.024;11.726;2023-08-01T01:19:43;1.60;;;1.50;;
9536;SDS011;4807;48.024;11.726;2023-08-01T01:22:53;1.93;;;1.57;;
9536;SDS011;4807;48.024;11.726;2023-08-01T01:26:03;3.43;;;1.47;;
9536;SDS011;4807;48.024;11.726;2023-08-01T01:29:14;2.80;;;1.67;;
9536;SDS011;4807;48.024;11.726;2023-08-01T01:32:23;1.80;;;1.50;;
9536;SDS011;4807;48.024;11.726;2023-08-01T01:35:33;3.03;;;1.40;;
9536;SDS011;4807;48.024;11.726;2023-08-01T01:38:43;1.53;;;1.43;;
9536;SDS011;4807;48.024;11.726;2023-08-01T01:41:53;2.07;;;1.30;;
9536;SDS011;4807;48.024;11.726;2023-08-01T01:45:02;4.60;;;1.80;;
9536;SDS011;4807;48.024;11.726;2023-08-01T01:48:11;2.27;;;1.67;;
9536;SDS011;4807;48.024;11.726;2023-08-01T01:51:20;2.90;;;1.97;;
9536;SDS011;4807;48.024;11.726;2023-08-01T01:54:30;1.73;;;1.30;;
9536;SDS011;4807;48.024;11.726;2023-08-01T01:57:39;1.63;;;1.53;;
9536;SDS011;4807;48.024;11.726;2023-08-01T02:00:48;1.30;;;1.20;;
9536;SDS011;4807;48.024;11.726;2023-08-01T02:03:56;1.30;;;1.20;;
9536;SDS011;4807;48.024;11.726;2023-08-01T02:07:05;1.47;;;1.37;;
9536;SDS011;4807;48.024;11.726;2023-08-01T02:10:17;2.27;;;1.67;;
9536;SDS011;4807;48.024;11.726;2023-08-01T02:13:26;1.93;;;1.60;;
9536;SDS011;4807;48.024;11.726;2023-08-01T02:16:40;3.30;;;1.47;;
9536;SDS011;4807;48.024;11.726;2023-08-01T02:19:48;2.87;;;1.80;;
9536;SDS011;4807;48.024;11.726;2023-08-01T02:22:57;3.13;;;1.70;;
9536;SDS011;4807;48.024;11.726;2023-08-01T02:26:07;2.20;;;1.60;;
9536;SDS011;4807;48.024;11.726;2023-08-01T02:29:16;1.80;;;1.50;;
9536;SDS011;4807;48.024;11.726;2023-08-01T02:32:25;5.17;;;1.80;;
9536;SDS011;4807;48.024;11.726;2023-08-01T02:35:37;2.47;;;1.43;;
9536;SDS011;4807;48.024;11.726;2023-08-01T02:38:47;1.60;;;1.30;;
9536;SDS011;4807;48.024;11.726;2023-08-01T02:41:56;2.07;;;1.70;;
9536;SDS011;4807;48.024;11.726;2023-08-01T02:45:05;2.10;;;1.60;;
9536;SDS011;4807;48.024;11.726;2023-08-01T02:48:16;2.27;;;1.50;;
9536;SDS011;4807;48.024;11.726;2023-08-01T02:51:25;2.30;;;1.70;;
9536;SDS011;4807;48.024;11.726;2023-08-01T02:54:34;1.80;;;1.37;;
9536;SDS011;4807;48.024;11.726;2023-08-01T02:57:44;2.37;;;1.60;;
9536;SDS011;4807;48.024;11.726;2023-08-01T03:00:53;2.90;;;1.70;;
9536;SDS011;4807;48.024;11.726;2023-08-01T03:04:02;3.60;;;1.70;;
9536;SDS011;4807;48.024;11.726;2023-08-01T03:07:12;2.10;;;1.70;;
9536;SDS011;4807;48.024;11.726;2023-08-01T03:10:21;2.13;;;1.60;;
9536;SDS011;4807;48.024;11.726;2023-08-01T03:13:37;1.70;;;1.60;;
9536;SDS011;4807;48.024;11.726;2023-08-01T03:16:46;1.60;;;1.50;;
9536;SDS011;4807;48.024;11.726;2023-08-01T03:19:55;1.37;;;1.27;;
9536;SDS011;4807;48.024;11.726;2023-08-01T03:23:04;2.53;;;1.30;;
9536;SDS011;4807;48.024;11.726;2023-08-01T03:26:13;1.70;;;1.37;;
9536;SDS011;4807;48.024;11.726;2023-08-01T03:29:24;1.40;;;1.30;;
9536;SDS011;4807;48.024;11.726;2023-08-01T03:32:32;1.73;;;1.33;;
9536;SDS011;4807;48.024;11.726;2023-08-01T03:35:41;2.13;;;1.40;;
9536;SDS011;4807;48.024;11.726;2023-08-01T03:38:51;2.90;;;1.40;;
9536;SDS011;4807;48.024;11.726;2023-08-01T03:42:00;1.30;;;1.20;;
9536;SDS011;4807;48.024;11.726;2023-08-01T03:45:11;2.30;;;1.57;;
9536;SDS011;4807;48.024;11.726;2023-08-01T03:48:20;3.07;;;1.93;;
9536;SDS011;4807;48.024;11.726;2023-08-01T03:51:29;2.20;;;1.57;;
9536;SDS011;4807;48.024;11.726;2023-08-01T03:54:38;2.97;;;1.57;;
9536;SDS011;4807;48.024;11.726;2023-08-01T03:57:47;1.97;;;1.60;;
9536;SDS011;4807;48.024;11.726;2023-08-01T04:01:00;1.67;;;1.57;;
9536;SDS011;4807;48.024;11.726;2023-08-01T04:04:09;1.90;;;1.70;;
9536;SDS011;4807;48.024;11.726;2023-08-01T04:07:18;1.80;;;1.50;;
9536;SDS011;4807;48.024;11.726;2023-08-01T04:10:27;2.37;;;1.50;;
9536;SDS011;4807;48.024;11.726;2023-08-01T04:13:36;1.70;;;1.47;;
9536;SDS011;4807;48.024;11.726;2023-08-01T04:16:46;1.60;;;1.50;;
9536;SDS011;4807;48.024;11.726;2023-08-01T04:19:55;1.60;;;1.50;;
9536;SDS011;4807;48.024;11.726;2023-08-01T04:23:04;1.73;;;1.63;;
9536;SDS011;4807;48.024;11.726;2023-08-01T04:26:13;3.47;;;1.87;;
9536;SDS011;4807;48.024;11.726;2023-08-01T04:29:22;2.60;;;1.70;;
9536;SDS011;4807;48.024;11.726;2023-08-01T04:32:32;2.17;;;1.97;;
9536;SDS011;4807;48.024;11.726;2023-08-01T04:35:41;3.13;;;2.20;;
9536;SDS011;4807;48.024;11.726;2023-08-01T04:38:55;3.90;;;2.13;;
9536;SDS011;4807;48.024;11.726;2023-08-01T04:42:04;2.30;;;2.10;;
9536;SDS011;4807;48.024;11.726;2023-08-01T04:45:13;2.43;;;1.60;;
9536;SDS011;4807;48.024;11.726;2023-08-01T04:48:23;3.10;;;1.90;;
9536;SDS011;4807;48.024;11.726;2023-08-01T04:51:32;2.37;;;1.90;;
9536;SDS011;4807;48.024;11.726;2023-08-01T04:54:41;1.73;;;1.60;;
9536;SDS011;4807;48.024;11.726;2023-08-01T04:57:49;5.03;;;1.87;;
9536;SDS011;4807;48.024;11.726;2023-08-01T05:00:58;2.60;;;1.80;;
9536;SDS011;4807;48.024;11.726;2023-08-01T05:08:26;4.87;;;2.43;;
9536;SDS011;4807;48.024;11.726;2023-08-01T05:12:15;3.53;;;2.63;;
9536;SDS011;4807;48.024;11.726;2023-08-01T05:15:24;3.03;;;2.70;;
9536;SDS011;4807;48.024;11.726;2023-08-01T05:18:39;4.53;;;2.20;;
9536;SDS011;4807;48.024;11.726;2023-08-01T05:22:06;2.83;;;2.60;;
9536;SDS011;4807;48.024;11.726;2023-08-01T05:25:15;4.43;;;2.10;;
9536;SDS011;4807;48.024;11.726;2023-08-01T05:28:25;2.80;;;2.33;;
9536;SDS011;4807;48.024;11.726;2023-08-01T05:31:34;3.33;;;2.33;;
9536;SDS011;4807;48.024;11.726;2023-08-01T05:34:46;2.77;;;2.20;;
9536;SDS011;4807;48.024;11.726;2023-08-01T05:37:59;3.77;;;2.40;;
9536;SDS011;4807;48.024;11.726;2023-08-01T05:41:11;2.40;;;2.20;;
9536;SDS011;4807;48.024;11.726;2023-08-01T05:44:20;7.53;;;2.70;;
9536;SDS011;4807;48.024;11.726;2023-08-01T05:47:31;3.07;;;2.00;;
9536;SDS011;4807;48.024;11.726;2023-08-01T05:50:50;2.47;;;2.20;;
9536;SDS011;4807;48.024;11.726;2023-08-01T05:54:34;3.30;;;2.50;;
9536;SDS011;4807;48.024;11.726;2023-08-01T05:57:47;3.00;;;2.33;;
9536;SDS011;4807;48.024;11.726;2023-08-01T06:00:59;2.50;;;2.07;;
9536;SDS011;4807;48.024;11.726;2023-08-01T06:04:08;2.50;;;2.17;;
9536;SDS011;4807;48.024;11.726;2023-08-01T06:07:17;3.97;;;2.40;;
9536;SDS011;4807;48.024;11.726;2023-08-01T06:10:29;2.50;;;2.30;;
9536;SDS011;4807;48.024;11.726;2023-08-01T06:13:40;5.43;;;2.13;;
9536;SDS011;4807;48.024;11.726;2023-08-01T06:16:49;3.63;;;2.23;;
9536;SDS011;4807;48.024;11.726;2023-08-01T06:20:01;3.00;;;2.70;;
9536;SDS011;4807;48.024;11.726;2023-08-01T06:23:21;3.10;;;2.53;;
9536;SDS011;4807;48.024;11.726;2023-08-01T06:26:35;3.57;;;2.63;;
9536;SDS011;4807;48.024;11.726;2023-08-01T06:29:46;4.37;;;2.50;;
9536;SDS011;4807;48.024;11.726;2023-08-01T06:32:55;3.33;;;2.30;;
9536;SDS011;4807;48.024;11.726;2023-08-01T06:36:05;3.83;;;2.87;;
9536;SDS011;4807;48.024;11.726;2023-08-01T06:39:14;3.83;;;2.77;;
9536;SDS011;4807;48.024;11.726;2023-08-01T06:42:23;3.33;;;2.50;;
9536;SDS011;4807;48.024;11.726;2023-08-01T06:45:33;3.93;;;2.87;;
9536;SDS011;4807;48.024;11.726;2023-08-01T06:48:44;5.33;;;3.10;;
9536;SDS011;4807;48.024;11.726;2023-08-01T06:51:55;3.30;;;2.37;;
9536;SDS011;4807;48.024;11.726;2023-08-01T06:55:04;4.20;;;3.00;;
9536;SDS011;4807;48.024;11.726;2023-08-01T06:58:13;4.23;;;2.50;;
9536;SDS011;4807;48.024;11.726;2023-08-01T07:01:23;2.60;;;2.40;;
9536;SDS011;4807;48.024;11.726;2023-08-01T07:04:33;2.70;;;2.50;;
9536;SDS011;4807;48.024;11.726;2023-08-01T07:07:43;4.03;;;2.70;;
9536;SDS011;4807;48.024;11.726;2023-08-01T07:10:52;4.23;;;2.70;;
9536;SDS011;4807;48.024;11.726;2023-08-01T07:14:01;3.07;;;2.07;;
9536;SDS011;4807;48.024;11.726;2023-08-01T07:17:11;3.90;;;2.53;;
9536;SDS011;4807;48.024;11.726;2023-08-01T07:20:20;3.23;;;2.57;;
9536;SDS011;4807;48.024;11.726;2023-08-01T07:23:30;5.10;;;2.50;;
9536;SDS011;4807;48.024;11.726;2023-08-01T07:26:39;3.77;;;2.30;;
9536;SDS011;4807;48.024;11.726;2023-08-01T07:29:48;3.07;;;2.10;;
9536;SDS011;4807;48.024;11.726;2023-08-01T07:32:58;2.60;;;2.10;;
9536;SDS011;4807;48.024;11.726;2023-08-01T07:36:07;4.20;;;2.07;;
9536;SDS011;4807;48.024;11.726;2023-08-01T07:39:15;5.77;;;2.07;;
9536;SDS011;4807;48.024;11.726;2023-08-01T07:42:24;2.80;;;1.90;;
9536;SDS011;4807;48.024;11.726;2023-08-01T07:45:33;2.00;;;1.80;;
9536;SDS011;4807;48.024;11.726;2023-08-01T07:48:43;4.07;;;2.30;;
9536;SDS011;4807;48.024;11.726;2023-08-01T07:51:52;5.27;;;2.60;;
9536;SDS011;4807;48.024;11.726;2023-08-01T07:55:00;5.40;;;2.07;;
9536;SDS011;4807;48.024;11.726;2023-08-01T07:58:10;3.13;;;2.30;;
9536;SDS011;4807;48.024;11.726;2023-08-01T08:01:20;3.73;;;1.97;;
9536;SDS011;4807;48.024;11.726;2023-08-01T08:04:30;2.40;;;1.97;;
9536;SDS011;4807;48.024;11.726;2023-08-01T08:07:40;2.70;;;2.50;;
9536;SDS011;4807;48.024;11.726;2023-08-01T08:10:50;2.67;;;2.20;;
9536;SDS011;4807;48.024;11.726;2023-08-01T08:13:59;2.50;;;2.07;;
9536;SDS011;4807;48.024;11.726;2023-08-01T08:17:08;4.43;;;2.47;;
9536;SDS011;4807;48.024;11.726;2023-08-01T08:20:24;2.87;;;2.43;;
9536;SDS011;4807;48.024;11.726;2023-08-01T08:23:32;2.87;;;2.17;;
9536;SDS011;4807;48.024;11.726;2023-08-01T08:26:42;2.90;;;2.00;;
9536;SDS011;4807;48.024;11.726;2023-08-01T08:29:51;2.73;;;2.00;;
9536;SDS011;4807;48.024;11.726;2023-08-01T08:33:03;2.70;;;2.50;;
9536;SDS011;4807;48.024;11.726;2023-08-01T08:36:15;2.20;;;1.90;;
9536;SDS011;4807;48.024;11.726;2023-08-01T08:39:24;2.97;;;2.23;;
9536;SDS011;4807;48.024;11.726;2023-08-01T08:42:33;2.27;;;2.07;;
9536;SDS011;4807;48.024;11.726;2023-08-01T08:45:42;2.00;;;1.77;;
9536;SDS011;4807;48.024;11.726;2023-08-01T08:48:54;4.50;;;2.30;;
9536;SDS011;4807;48.024;11.726;2023-08-01T08:52:06;2.63;;;1.83;;
9536;SDS011;4807;48.024;11.726;2023-08-01T08:55:16;3.80;;;2.43;;
9536;SDS011;4807;48.024;11.726;2023-08-01T08:58:28;4.47;;;2.40;;
9536;SDS011;4807;48.024;11.726;2023-08-01T09:01:38;2.97;;;2.20;;
9536;SDS011;4807;48.024;11.726;2023-08-01T09:04:47;3.87;;;2.30;;
9536;SDS011;4807;48.024;11.726;2023-08-01T09:07:57;4.23;;;2.70;;
9536;SDS011;4807;48.024;11.726;2023-08-01T09:11:15;3.40;;;2.50;;
9536;SDS011;4807;48.024;11.726;2023-08-01T09:14:23;2.83;;;2.10;;
9536;SDS011;4807;48.024;11.726;2023-08-01T09:17:32;4.73;;;2.67;;
9536;SDS011;4807;48.024;11.726;2023-08-01T09:20:42;3.50;;;1.87;;
9536;SDS011;4807;48.024;11.726;2023-08-01T09:23:54;5.27;;;2.30;;
9536;SDS011;4807;48.024;11.726;2023-08-01T09:27:03;4.57;;;2.40;;
9536;SDS011;4807;48.024;11.726;2023-08-01T09:30:15;3.13;;;2.30;;
9536;SDS011;4807;48.024;11.726;2023-08-01T09:33:37;2.70;;;2.20;;
9536;SDS011;4807;48.024;11.726;2023-08-01T09:36:46;3.40;;;2.10;;
9536;SDS011;4807;48.024;11.726;2023-08-01T09:39:57;3.93;;;2.23;;
9536;SDS011;4807;48.024;11.726;2023-08-01T09:43:06;9.90;;;4.67;;
9536;SDS011;4807;48.024;11.726;2023-08-01T09:46:15;3.13;;;2.47;;
9536;SDS011;4807;48.024;11.726;2023-08-01T09:49:24;5.33;;;2.13;;
9536;SDS011;4807;48.024;11.726;2023-08-01T09:52:36;2.53;;;2.30;;
9536;SDS011;4807;48.024;11.726;2023-08-01T09:55:46;4.33;;;2.50;;
9536;SDS011;4807;48.024;11.726;2023-08-01T09:58:58;3.87;;;2.23;;
9536;SDS011;4807;48.024;11.726;2023-08-01T10:02:08;4.50;;;2.60;;
9536;SDS011;4807;48.024;11.726;2023-08-01T10:05:24;6.90;;;2.60;;
9536;SDS011;4807;48.024;11.726;2023-08-01T10:08:34;2.67;;;2.27;;
9536;SDS011;4807;48.024;11.726;2023-08-01T10:11:44;2.90;;;2.20;;
9536;SDS011;4807;48.024;11.726;2023-08-01T10:14:54;3.40;;;2.27;;
9536;SDS011;4807;48.024;11.726;2023-08-01T10:18:03;3.77;;;2.50;;
9536;SDS011;4807;48.024;11.726;2023-08-01T10:21:13;4.07;;;2.87;;
9536;SDS011;4807;48.024;11.726;2023-08-01T10:24:24;4.37;;;2.60;;
9536;SDS011;4807;48.024;11.726;2023-08-01T10:27:38;3.13;;;2.27;;
9536;SDS011;4807;48.024;11.726;2023-08-01T10:30:48;3.90;;;2.50;;
9536;SDS011;4807;48.024;11.726;2023-08-01T10:34:05;4.33;;;2.40;;
9536;SDS011;4807;48.024;11.726;2023-08-01T10:37:15;3.80;;;2.13;;
9536;SDS011;4807;48.024;11.726;2023-08-01T10:40:32;2.53;;;1.90;;
9536;SDS011;4807;48.024;11.726;2023-08-01T10:43:49;3.93;;;1.80;;
9536;SDS011;4807;48.024;11.726;2023-08-01T10:46:59;2.63;;;2.13;;
9536;SDS011;4807;48.024;11.726;2023-08-01T10:50:13;2.27;;;1.80;;
9536;SDS011;4807;48.024;11.726;2023-08-01T10:53:22;4.17;;;2.10;;
9536;SDS011;4807;48.024;11.726;2023-08-01T10:56:31;2.50;;;1.50;;
9536;SDS011;4807;48.024;11.726;2023-08-01T10:59:41;3.37;;;1.80;;
9536;SDS011;4807;48.024;11.726;2023-08-01T11:02:52;4.77;;;2.60;;
9536;SDS011;4807;48.024;11.726;2023-08-01T11:06:02;3.60;;;1.87;;
9536;SDS011;4807;48.024;11.726;2023-08-01T11:09:15;2.20;;;2.00;;
9536;SDS011;4807;48.024;11.726;2023-08-01T11:12:24;4.13;;;2.07;;
9536;SDS011;4807;48.024;11.726;2023-08-01T11:15:36;2.80;;;2.10;;
9536;SDS011;4807;48.024;11.726;2023-08-01T11:18:45;2.30;;;1.87;;
9536;SDS011;4807;48.024;11.726;2023-08-01T11:21:54;3.93;;;1.90;;
9536;SDS011;4807;48.024;11.726;2023-08-01T11:25:04;1.90;;;1.70;;
9536;SDS011;4807;48.024;11.726;2023-08-01T11:28:15;1.97;;;1.40;;
9536;SDS011;4807;48.024;11.726;2023-08-01T11:31:25;1.93;;;1.50;;
9536;SDS011;4807;48.024;11.726;2023-08-01T11:34:39;1.70;;;1.40;;
9536;SDS011;4807;48.024;11.726;2023-08-01T11:37:50;1.80;;;1.30;;
9536;SDS011;4807;48.024;11.726;2023-08-01T11:40:59;2.23;;;1.40;;
9536;SDS011;4807;48.024;11.726;2023-08-01T11:44:09;3.00;;;1.50;;
9536;SDS011;4807;48.024;11.726;2023-08-01T11:47:19;1.73;;;1.60;;
9536;SDS011;4807;48.024;11.726;2023-08-01T11:50:28;1.80;;;1.23;;
9536;SDS011;4807;48.024;11.726;2023-08-01T11:53:37;2.23;;;1.90;;
9536;SDS011;4807;48.024;11.726;2023-08-01T11:56:46;1.60;;;1.47;;
9536;SDS011;4807;48.024;11.726;2023-08-01T11:59:55;2.60;;;1.70;;
9536;SDS011;4807;48.024;11.726;2023-08-01T12:03:06;8.97;;;1.70;;
9536;SDS011;4807;48.024;11.726;2023-08-01T12:06:19;2.37;;;1.50;;
9536;SDS011;4807;48.024;11.726;2023-08-01T12:09:31;3.47;;;1.57;;
9536;SDS011;4807;48.024;11.726;2023-08-01T12:12:43;2.87;;;1.97;;
9536;SDS011;4807;48.024;11.726;2023-08-01T12:15:54;1.70;;;1.37;;
9536;SDS011;4807;48.024;11.726;2023-08-01T12:19:05;1.53;;;1.43;;
9536;SDS011;4807;48.024;11.726;2023-08-01T12:22:13;1.80;;;1.60;;
9536;SDS011;4807;48.024;11.726;2023-08-01T12:25:22;2.60;;;1.70;;
9536;SDS011;4807;48.024;11.726;2023-08-01T12:28:31;1.70;;;1.30;;
9536;SDS011;4807;48.024;11.726;2023-08-01T12:31:39;1.53;;;1.43;;
9536;SDS011;4807;48.024;11.726;2023-08-01T12:34:50;2.00;;;1.50;;
9536;SDS011;4807;48.024;11.726;2023-08-01T12:37:58;1.33;;;1.23;;
9536;SDS011;4807;48.024;11.726;2023-08-01T12:41:07;1.47;;;1.00;;
9536;SDS011;4807;48.024;11.726;2023-08-01T12:44:16;2.20;;;1.20;;
9536;SDS011;4807;48.024;11.726;2023-08-01T12:47:24;1.60;;;1.03;;
9536;SDS011;4807;48.024;11.726;2023-08-01T12:50:35;1.30;;;0.90;;
9536;SDS011;4807;48.024;11.726;2023-08-01T12:53:46;1.20;;;0.80;;
9536;SDS011;4807;48.024;11.726;2023-08-01T12:56:55;1.10;;;0.90;;
9536;SDS011;4807;48.024;11.726;2023-08-01T13:00:04;1.37;;;0.80;;
9536;SDS011;4807;48.024;11.726;2023-08-01T13:03:16;1.03;;;0.97;;
9536;SDS011;4807;48.024;11.726;2023-08-01T13:06:26;1.17;;;0.90;;
9536;SDS011;4807;48.024;11.726;2023-08-01T13:09:35;0.93;;;0.90;;
9536;SDS011;4807;48.024;11.726;2023-08-01T13:12:43;1.00;;;0.80;;
9536;SDS011;4807;48.024;11.726;2023-08-01T13:15:52;6.20;;;1.00;;
9536;SDS011;4807;48.024;11.726;2023-08-01T13:19:03;1.00;;;0.90;;
9536;SDS011;4807;48.024;11.726;2023-08-01T13:22:14;1.70;;;0.80;;
9536;SDS011;4807;48.024;11.726;2023-08-01T13:25:23;0.93;;;0.87;;
9536;SDS011;4807;48.024;11.726;2023-08-01T13:28:32;0.93;;;0.80;;
9536;SDS011;4807;48.024;11.726;2023-08-01T13:31:40;0.93;;;0.80;;
9536;SDS011;4807;48.024;11.726;2023-08-01T13:34:49;1.67;;;0.80;;
9536;SDS011;4807;48.024;11.726;2023-08-01T13:37:59;0.90;;;0.90;;
9536;SDS011;4807;48.024;11.726;2023-08-01T13:41:08;1.10;;;0.80;;
9536;SDS011;4807;48.024;11.726;2023-08-01T13:44:16;1.50;;;0.90;;
9536;SDS011;4807;48.024;11.726;2023-08-01T13:47:25;1.10;;;1.00;;
9536;SDS011;4807;48.024;11.726;2023-08-01T13:50:34;1.23;;;1.00;;
9536;SDS011;4807;48.024;11.726;2023-08-01T13:53:44;1.50;;;1.23;;
9536;SDS011;4807;48.024;11.726;2023-08-01T13:56:53;2.13;;;0.90;;
9536;SDS011;4807;48.024;11.726;2023-08-01T14:00:01;1.20;;;1.10;;
9536;SDS011;4807;48.024;11.726;2023-08-01T14:03:21;1.87;;;0.83;;
9536;SDS011;4807;48.024;11.726;2023-08-01T14:06:29;1.50;;;0.87;;
9536;SDS011;4807;48.024;11.726;2023-08-01T14:09:39;1.27;;;0.73;;
9536;SDS011;4807;48.024;11.726;2023-08-01T14:12:48;0.83;;;0.70;;
9536;SDS011;4807;48.024;11.726;2023-08-01T14:15:57;1.10;;;1.00;;
9536;SDS011;4807;48.024;11.726;2023-08-01T14:19:06;1.83;;;1.00;;
9536;SDS011;4807;48.024;11.726;2023-08-01T14:22:15;3.57;;;0.90;;
9536;SDS011;4807;48.024;11.726;2023-08-01T14:25:24;1.20;;;0.90;;
9536;SDS011;4807;48.024;11.726;2023-08-01T14:28:36;2.50;;;0.93;;
9536;SDS011;4807;48.024;11.726;2023-08-01T14:31:45;2.47;;;0.70;;
9536;SDS011;4807;48.024;11.726;2023-08-01T14:34:54;1.57;;;0.70;;
9536;SDS011;4807;48.024;11.726;2023-08-01T14:38:02;1.43;;;0.60;;
9536;SDS011;4807;48.024;11.726;2023-08-01T14:41:13;0.97;;;0.67;;
9536;SDS011;4807;48.024;11.726;2023-08-01T14:44:41;1.03;;;0.90;;
9536;SDS011;4807;48.024;11.726;2023-08-01T14:47:50;0.57;;;0.53;;
9536;SDS011;4807;48.024;11.726;2023-08-01T14:50:58;1.57;;;0.57;;
9536;SDS011;4807;48.024;11.726;2023-08-01T14:54:07;0.70;;;0.70;;
9536;SDS011;4807;48.024;11.726;2023-08-01T14:57:20;0.97;;;0.60;;
9536;SDS011;4807;48.024;11.726;2023-08-01T15:00:29;0.47;;;0.40;;
9536;SDS011;4807;48.024;11.726;2023-08-01T15:03:37;0.77;;;0.60;;
9536;SDS011;4807;48.024;11.726;2023-08-01T15:06:46;0.80;;;0.40;;
9536;SDS011;4807;48.024;11.726;2023-08-01T15:09:55;1.50;;;0.40;;
9536;SDS011;4807;48.024;11.726;2023-08-01T15:13:05;0.40;;;0.40;;
9536;SDS011;4807;48.024;11.726;2023-08-01T15:16:14;0.60;;;0.33;;
9536;SDS011;4807;48.024;11.726;2023-08-01T15:19:23;0.40;;;0.40;;
9536;SDS011;4807;48.024;11.726;2023-08-01T15:22:32;0.53;;;0.40;;
9536;SDS011;4807;48.024;11.726;2023-08-01T15:25:40;2.20;;;0.50;;
9536;SDS011;4807;48.024;11.726;2023-08-01T15:28:59;0.77;;;0.70;;
9536;SDS011;4807;48.024;11.726;2023-08-01T15:32:08;1.10;;;0.60;;
9536;SDS011;4807;48.024;11.726;2023-08-01T15:35:17;2.50;;;0.70;;
9536;SDS011;4807;48.024;11.726;2023-08-01T15:38:26;1.93;;;0.63;;
9536;SDS011;4807;48.024;11.726;2023-08-01T15:41:34;0.70;;;0.50;;
9536;SDS011;4807;48.024;11.726;2023-08-01T15:44:44;0.60;;;0.57;;
9536;SDS011;4807;48.024;11.726;2023-08-01T15:47:53;0.77;;;0.60;;
9536;SDS011;4807;48.024;11.726;2023-08-01T15:51:02;0.40;;;0.40;;
9536;SDS011;4807;48.024;11.726;2023-08-01T15:54:12;2.50;;;0.70;;
9536;SDS011;4807;48.024;11.726;2023-08-01T15:57:21;0.80;;;0.70;;
9536;SDS011;4807;48.024;11.726;2023-08-01T16:00:31;0.40;;;0.40;;
9536;SDS011;4807;48.024;11.726;2023-08-01T16:03:40;0.40;;;0.40;;
9536;SDS011;4807;48.024;11.726;2023-08-01T16:06:51;0.87;;;0.60;;
9536;SDS011;4807;48.024;11.726;2023-08-01T16:10:00;0.50;;;0.50;;
9536;SDS011;4807;48.024;11.726;2023-08-01T16:13:09;0.33;;;0.30;;
9536;SDS011;4807;48.024;11.726;2023-08-01T16:16:20;0.30;;;0.30;;
9536;SDS011;4807;48.024;11.726;2023-08-01T16:19:29;0.30;;;0.30;;
9536;SDS011;4807;48.024;11.726;2023-08-01T16:22:37;1.90;;;0.40;;
9536;SDS011;4807;48.024;11.726;2023-08-01T16:25:46;0.30;;;0.30;;
9536;SDS011;4807;48.024;11.726;2023-08-01T16:28:55;0.60;;;0.50;;
9536;SDS011;4807;48.024;11.726;2023-08-01T16:32:05;0.40;;;0.40;;
9536;SDS011;4807;48.024;11.726;2023-08-01T16:35:14;0.40;;;0.37;;
9536;SDS011;4807;48.024;11.726;2023-08-01T16:38:23;0.30;;;0.30;;
9536;SDS011;4807;48.024;11.726;2023-08-01T16:41:31;0.30;;;0.30;;
9536;SDS011;4807;48.024;11.726;2023-08-01T16:44:40;0.30;;;0.30;;
9536;SDS011;4807;48.024;11.726;2023-08-01T16:47:50;0.90;;;0.30;;
9536;SDS011;4807;48.024;11.726;2023-08-01T16:50:59;0.33;;;0.23;;
9536;SDS011;4807;48.024;11.726;2023-08-01T16:54:08;0.30;;;0.20;;
9536;SDS011;4807;48.024;11.726;2023-08-01T16:57:18;2.70;;;0.30;;
9536;SDS011;4807;48.024;11.726;2023-08-01T17:00:27;0.40;;;0.10;;
9536;SDS011;4807;48.024;11.726;2023-08-01T17:03:37;1.43;;;0.20;;
9536;SDS011;4807;48.024;11.726;2023-08-01T17:06:45;0.10;;;0.10;;
9536;SDS011;4807;48.024;11.726;2023-08-01T17:09:54;0.20;;;0.20;;
9536;SDS011;4807;48.024;11.726;2023-08-01T17:13:05;0.30;;;0.30;;
9536;SDS011;4807;48.024;11.726;2023-08-01T17:16:14;0.20;;;0.13;;
9536;SDS011;4807;48.024;11.726;2023-08-01T17:19:24;0.20;;;0.20;;
9536;SDS011;4807;48.024;11.726;2023-08-01T17:22:33;0.57;;;0.40;;
9536;SDS011;4807;48.024;11.726;2023-08-01T17:25:42;0.43;;;0.30;;
9536;SDS011;4807;48.024;11.726;2023-08-01T17:28:50;0.60;;;0.30;;
9536;SDS011;4807;48.024;11.726;2023-08-01T17:31:59;0.40;;;0.30;;
9536;SDS011;4807;48.024;11.726;2023-08-01T17:35:09;0.40;;;0.40;;
9536;SDS011;4807;48.024;11.726;2023-08-01T17:38:18;0.40;;;0.30;;
9536;SDS011;4807;48.024;11.726;2023-08-01T17:41:27;0.93;;;0.20;;
9536;SDS011;4807;48.024;11.726;2023-08-01T17:44:37;1.47;;;0.40;;
9536;SDS011;4807;48.024;11.726;2023-08-01T17:47:46;0.97;;;0.43;;
9536;SDS011;4807;48.024;11.726;2023-08-01T17:50:57;0.20;;;0.20;;
9536;SDS011;4807;48.024;11.726;2023-08-01T17:54:05;1.63;;;0.33;;
9536;SDS011;4807;48.024;11.726;2023-08-01T17:57:14;0.50;;;0.50;;
9536;SDS011;4807;48.024;11.726;2023-08-01T18:00:23;4.10;;;0.40;;
9536;SDS011;4807;48.024;11.726;2023-08-01T18:03:32;2.43;;;0.40;;
9536;SDS011;4807;48.024;11.726;2023-08-01T18:06:42;0.53;;;0.30;;
9536;SDS011;4807;48.024;11.726;2023-08-01T18:09:51;0.53;;;0.33;;
9536;SDS011;4807;48.024;11.726;2023-08-01T18:13:00;3.10;;;0.57;;
9536;SDS011;4807;48.024;11.726;2023-08-01T18:16:17;0.40;;;0.40;;
9536;SDS011;4807;48.024;11.726;2023-08-01T18:19:26;1.60;;;0.33;;
9536;SDS011;4807;48.024;11.726;2023-08-01T18:22:36;0.40;;;0.30;;
9536;SDS011;4807;48.024;11.726;2023-08-01T18:25:45;0.40;;;0.40;;
9536;SDS011;4807;48.024;11.726;2023-08-01T18:28:53;0.90;;;0.40;;
9536;SDS011;4807;48.024;11.726;2023-08-01T18:32:02;0.40;;;0.40;;
9536;SDS011;4807;48.024;11.726;2023-08-01T18:35:11;1.07;;;0.20;;
9536;SDS011;4807;48.024;11.726;2023-08-01T18:38:21;0.20;;;0.20;;
9536;SDS011;4807;48.024;11.726;2023-08-01T18:41:30;0.43;;;0.37;;
9536;SDS011;4807;48.024;11.726;2023-08-01T18:44:40;0.60;;;0.30;;
9536;SDS011;4807;48.024;11.726;2023-08-01T18:47:48;1.70;;;0.20;;
9536;SDS011;4807;48.024;11.726;2023-08-01T18:50:58;0.30;;;0.30;;
9536;SDS011;4807;48.024;11.726;2023-08-01T18:54:09;0.77;;;0.30;;
9536;SDS011;4807;48.024;11.726;2023-08-01T18:57:19;0.43;;;0.30;;
9536;SDS011;4807;48.024;11.726;2023-08-01T19:00:28;0.53;;;0.40;;
9536;SDS011;4807;48.024;11.726;2023-08-01T19:03:37;0.20;;;0.20;;
9536;SDS011;4807;48.024;11.726;2023-08-01T19:06:45;0.20;;;0.20;;
9536;SDS011;4807;48.024;11.726;2023-08-01T19:09:56;0.63;;;0.43;;
9536;SDS011;4807;48.024;11.726;2023-08-01T19:13:04;1.50;;;0.30;;
9536;SDS011;4807;48.024;11.726;2023-08-01T19:16:13;0.30;;;0.30;;
9536;SDS011;4807;48.024;11.726;2023-08-01T19:19:23;0.30;;;0.30;;
9536;SDS011;4807;48.024;11.726;2023-08-01T19:22:33;0.50;;;0.50;;
9536;SDS011;4807;48.024;11.726;2023-08-01T19:25:43;0.70;;;0.40;;